sensor_id;sensor_type;location;lat;lon;timestamp;pressure;altitude;pressure_sealevel;temperature;humidity
74163;BME280;62515;52.758;5.076;2024-03-06T00:00:36;101857.59;;;9.12;nan
74163;BME280;62515;52.758;5.076;2024-03-06T00:03:04;101857.13;;;9.21;nan
74163;BME280;62515;52.758;5.076;2024-03-06T00:05:31;101863.06;;;9.09;nan
74163;BME280;62515;52.758;5.076;2024-03-06T00:07:59;101860.03;;;9.33;nan
74163;BME280;62515;52.758;5.076;2024-03-06T00:10:26;101865.03;;;9.22;nan
74163;BME280;62515;52.758;5.076;2024-03-06T00:12:55;101863.00;;;9.10;nan
74163;BME280;62515;52.758;5.076;2024-03-06T00:15:22;101877.25;;;8.90;nan
74163;BME280;62515;52.758;5.076;2024-03-06T00:17:50;101874.66;;;8.89;nan
74163;BME280;62515;52.758;5.076;2024-03-06T00:20:17;101871.47;;;9.00;nan
74163;BME280;62515;52.758;5.076;2024-03-06T00:22:44;101870.31;;;9.05;nan
74163;BME280;62515;52.758;5.076;2024-03-06T00:25:12;101874.00;;;9.03;nan
74163;BME280;62515;52.758;5.076;2024-03-06T00:27:39;101875.94;;;8.99;nan
74163;BME280;62515;52.758;5.076;2024-03-06T00:30:09;101891.09;;;8.97;nan
74163;BME280;62515;52.758;5.076;2024-03-06T00:32:36;101882.00;;;9.01;nan
74163;BME280;62515;52.758;5.076;2024-03-06T00:35:04;101886.75;;;8.94;nan
74163;BME280;62515;52.758;5.076;2024-03-06T00:37:32;101888.22;;;8.83;nan
74163;BME280;62515;52.758;5.076;2024-03-06T00:39:59;101896.09;;;8.84;nan
74163;BME280;62515;52.758;5.076;2024-03-06T00:42:27;101897.66;;;8.88;nan
74163;BME280;62515;52.758;5.076;2024-03-06T00:44:54;101897.13;;;9.18;nan
74163;BME280;62515;52.758;5.076;2024-03-06T00:47:23;101898.59;;;9.42;nan
74163;BME280;62515;52.758;5.076;2024-03-06T00:49:51;101890.63;;;9.06;nan
74163;BME280;62515;52.758;5.076;2024-03-06T00:52:18;101897.72;;;9.06;nan
74163;BME280;62515;52.758;5.076;2024-03-06T00:54:46;101906.41;;;9.79;nan
74163;BME280;62515;52.758;5.076;2024-03-06T00:57:13;101911.38;;;8.79;nan
74163;BME280;62515;52.758;5.076;2024-03-06T00:59:41;101909.16;;;9.78;nan
74163;BME280;62515;52.758;5.076;2024-03-06T01:02:08;101910.00;;;9.61;nan
74163;BME280;62515;52.758;5.076;2024-03-06T01:04:37;101918.91;;;10.44;nan
74163;BME280;62515;52.758;5.076;2024-03-06T01:07:05;101923.75;;;9.69;nan
74163;BME280;62515;52.758;5.076;2024-03-06T01:09:32;101929.84;;;9.54;nan
74163;BME280;62515;52.758;5.076;2024-03-06T01:12:00;101937.91;;;10.21;nan
74163;BME280;62515;52.758;5.076;2024-03-06T01:14:28;101935.75;;;10.45;nan
74163;BME280;62515;52.758;5.076;2024-03-06T01:16:55;101936.25;;;9.33;nan
74163;BME280;62515;52.758;5.076;2024-03-06T01:19:23;101944.06;;;9.17;nan
74163;BME280;62515;52.758;5.076;2024-03-06T01:21:52;101946.56;;;9.39;nan
74163;BME280;62515;52.758;5.076;2024-03-06T01:24:19;101946.91;;;9.31;nan
74163;BME280;62515;52.758;5.076;2024-03-06T01:26:47;101950.75;;;9.26;nan
74163;BME280;62515;52.758;5.076;2024-03-06T01:29:14;101948.41;;;9.20;nan
74163;BME280;62515;52.758;5.076;2024-03-06T01:31:41;101953.31;;;9.27;nan
74163;BME280;62515;52.758;5.076;2024-03-06T01:34:09;101953.69;;;9.20;nan
74163;BME280;62515;52.758;5.076;2024-03-06T01:36:36;101955.91;;;9.29;nan
74163;BME280;62515;52.758;5.076;2024-03-06T01:39:05;101959.84;;;9.39;nan
74163;BME280;62515;52.758;5.076;2024-03-06T01:41:33;101955.56;;;9.18;nan
74163;BME280;62515;52.758;5.076;2024-03-06T01:44:01;101948.72;;;9.31;nan
74163;BME280;62515;52.758;5.076;2024-03-06T01:46:28;101951.06;;;9.20;nan
74163;BME280;62515;52.758;5.076;2024-03-06T01:48:56;101950.25;;;9.18;nan
74163;BME280;62515;52.758;5.076;2024-03-06T01:51:25;101949.16;;;9.22;nan
74163;BME280;62515;52.758;5.076;2024-03-06T01:53:53;101950.75;;;9.26;nan
74163;BME280;62515;52.758;5.076;2024-03-06T01:56:22;101957.63;;;9.11;nan
74163;BME280;62515;52.758;5.076;2024-03-06T01:58:50;101950.38;;;9.15;nan
74163;BME280;62515;52.758;5.076;2024-03-06T02:01:17;101945.06;;;9.15;nan
74163;BME280;62515;52.758;5.076;2024-03-06T02:03:45;101947.16;;;9.08;nan
74163;BME280;62515;52.758;5.076;2024-03-06T02:06:14;101945.38;;;9.09;nan
74163;BME280;62515;52.758;5.076;2024-03-06T02:08:42;101947.09;;;9.10;nan
74163;BME280;62515;52.758;5.076;2024-03-06T02:11:09;101952.41;;;8.91;nan
74163;BME280;62515;52.758;5.076;2024-03-06T02:13:38;101965.03;;;9.05;nan
74163;BME280;62515;52.758;5.076;2024-03-06T02:16:06;101968.72;;;8.83;nan
74163;BME280;62515;52.758;5.076;2024-03-06T02:18:34;101965.47;;;8.96;nan
74163;BME280;62515;52.758;5.076;2024-03-06T02:21:02;101960.78;;;9.01;nan
74163;BME280;62515;52.758;5.076;2024-03-06T02:23:30;101967.06;;;9.00;nan
74163;BME280;62515;52.758;5.076;2024-03-06T02:25:57;101964.19;;;8.85;nan
74163;BME280;62515;52.758;5.076;2024-03-06T02:28:25;101971.81;;;8.74;nan
74163;BME280;62515;52.758;5.076;2024-03-06T02:30:52;101967.56;;;8.89;nan
74163;BME280;62515;52.758;5.076;2024-03-06T02:33:20;101965.78;;;8.89;nan
74163;BME280;62515;52.758;5.076;2024-03-06T02:35:47;101967.22;;;8.97;nan
74163;BME280;62515;52.758;5.076;2024-03-06T02:38:16;101968.28;;;8.92;nan
74163;BME280;62515;52.758;5.076;2024-03-06T02:40:44;101965.69;;;8.72;nan
74163;BME280;62515;52.758;5.076;2024-03-06T02:43:11;101965.31;;;8.61;nan
74163;BME280;62515;52.758;5.076;2024-03-06T02:45:39;101974.84;;;8.65;nan
74163;BME280;62515;52.758;5.076;2024-03-06T02:48:07;101972.63;;;8.75;nan
74163;BME280;62515;52.758;5.076;2024-03-06T02:50:34;101974.94;;;8.82;nan
74163;BME280;62515;52.758;5.076;2024-03-06T02:53:02;101972.88;;;8.70;nan
74163;BME280;62515;52.758;5.076;2024-03-06T02:55:30;101973.78;;;8.69;nan
74163;BME280;62515;52.758;5.076;2024-03-06T02:58:01;101975.66;;;8.86;nan
74163;BME280;62515;52.758;5.076;2024-03-06T03:00:29;101977.78;;;8.78;nan
74163;BME280;62515;52.758;5.076;2024-03-06T03:02:56;101956.50;;;8.79;nan
74163;BME280;62515;52.758;5.076;2024-03-06T03:05:24;101980.19;;;9.03;nan
74163;BME280;62515;52.758;5.076;2024-03-06T03:07:51;101968.25;;;9.11;nan
74163;BME280;62515;52.758;5.076;2024-03-06T03:10:19;101971.00;;;9.10;nan
74163;BME280;62515;52.758;5.076;2024-03-06T03:12:48;101975.44;;;9.09;nan
74163;BME280;62515;52.758;5.076;2024-03-06T03:15:15;101977.03;;;8.94;nan
74163;BME280;62515;52.758;5.076;2024-03-06T03:17:43;101982.47;;;8.73;nan
74163;BME280;62515;52.758;5.076;2024-03-06T03:20:11;101982.03;;;8.82;nan
74163;BME280;62515;52.758;5.076;2024-03-06T03:22:39;101983.63;;;8.86;nan
74163;BME280;62515;52.758;5.076;2024-03-06T03:25:08;101989.28;;;8.78;nan
74163;BME280;62515;52.758;5.076;2024-03-06T03:27:36;101985.28;;;8.88;nan
74163;BME280;62515;52.758;5.076;2024-03-06T03:30:07;101987.63;;;8.94;nan
74163;BME280;62515;52.758;5.076;2024-03-06T03:32:35;101993.09;;;8.91;nan
74163;BME280;62515;52.758;5.076;2024-03-06T03:35:03;102000.13;;;9.66;nan
74163;BME280;62515;52.758;5.076;2024-03-06T03:37:31;101988.94;;;9.05;nan
74163;BME280;62515;52.758;5.076;2024-03-06T03:39:58;101989.50;;;8.92;nan
74163;BME280;62515;52.758;5.076;2024-03-06T03:42:26;101993.47;;;8.84;nan
74163;BME280;62515;52.758;5.076;2024-03-06T03:44:53;101990.03;;;8.62;nan
74163;BME280;62515;52.758;5.076;2024-03-06T03:47:22;101975.22;;;8.76;nan
74163;BME280;62515;52.758;5.076;2024-03-06T03:49:50;101980.91;;;8.87;nan
74163;BME280;62515;52.758;5.076;2024-03-06T03:52:29;101979.19;;;8.86;nan
74163;BME280;62515;52.758;5.076;2024-03-06T03:54:57;101976.72;;;8.82;nan
74163;BME280;62515;52.758;5.076;2024-03-06T03:57:24;101977.53;;;8.84;nan
74163;BME280;62515;52.758;5.076;2024-03-06T03:59:51;101975.38;;;8.73;nan
74163;BME280;62515;52.758;5.076;2024-03-06T04:02:19;101978.31;;;8.67;nan
74163;BME280;62515;52.758;5.076;2024-03-06T04:04:48;101980.69;;;8.73;nan
74163;BME280;62515;52.758;5.076;2024-03-06T04:07:15;101985.03;;;8.56;nan
74163;BME280;62515;52.758;5.076;2024-03-06T04:09:43;101974.69;;;8.50;nan
74163;BME280;62515;52.758;5.076;2024-03-06T04:12:10;101983.97;;;8.60;nan
74163;BME280;62515;52.758;5.076;2024-03-06T04:14:37;101980.53;;;8.58;nan
74163;BME280;62515;52.758;5.076;2024-03-06T04:17:05;101969.03;;;8.57;nan
74163;BME280;62515;52.758;5.076;2024-03-06T04:19:32;101981.75;;;8.69;nan
74163;BME280;62515;52.758;5.076;2024-03-06T04:22:01;101979.19;;;8.86;nan
74163;BME280;62515;52.758;5.076;2024-03-06T04:24:28;101978.81;;;8.75;nan
74163;BME280;62515;52.758;5.076;2024-03-06T04:26:56;101980.97;;;8.67;nan
74163;BME280;62515;52.758;5.076;2024-03-06T04:29:23;101980.84;;;8.50;nan
74163;BME280;62515;52.758;5.076;2024-03-06T04:31:51;101987.59;;;8.38;nan
74163;BME280;62515;52.758;5.076;2024-03-06T04:34:18;101997.63;;;8.51;nan
74163;BME280;62515;52.758;5.076;2024-03-06T04:36:45;101999.69;;;8.64;nan
74163;BME280;62515;52.758;5.076;2024-03-06T04:39:14;102005.00;;;8.64;nan
74163;BME280;62515;52.758;5.076;2024-03-06T04:41:42;102001.53;;;8.62;nan
74163;BME280;62515;52.758;5.076;2024-03-06T04:44:09;102008.69;;;8.60;nan
74163;BME280;62515;52.758;5.076;2024-03-06T04:46:37;102011.06;;;8.66;nan
74163;BME280;62515;52.758;5.076;2024-03-06T04:49:04;102012.81;;;8.67;nan
74163;BME280;62515;52.758;5.076;2024-03-06T04:51:32;102023.94;;;8.75;nan
74163;BME280;62515;52.758;5.076;2024-03-06T04:53:59;102022.47;;;8.68;nan
74163;BME280;62515;52.758;5.076;2024-03-06T04:56:28;102024.75;;;8.77;nan
74163;BME280;62515;52.758;5.076;2024-03-06T04:58:55;102025.25;;;8.65;nan
74163;BME280;62515;52.758;5.076;2024-03-06T05:01:23;102013.16;;;8.39;nan
74163;BME280;62515;52.758;5.076;2024-03-06T05:03:50;102026.34;;;8.61;nan
74163;BME280;62515;52.758;5.076;2024-03-06T05:06:35;102027.88;;;8.67;nan
74163;BME280;62515;52.758;5.076;2024-03-06T05:09:19;102034.53;;;8.75;nan
74163;BME280;62515;52.758;5.076;2024-03-06T05:12:06;102033.94;;;8.69;nan
74163;BME280;62515;52.758;5.076;2024-03-06T05:14:50;102037.81;;;8.62;nan
74163;BME280;62515;52.758;5.076;2024-03-06T05:17:35;102030.47;;;8.48;nan
74163;BME280;62515;52.758;5.076;2024-03-06T05:20:19;102034.06;;;8.47;nan
74163;BME280;62515;52.758;5.076;2024-03-06T05:23:04;102047.59;;;8.41;nan
74163;BME280;62515;52.758;5.076;2024-03-06T05:25:49;102047.63;;;8.39;nan
74163;BME280;62515;52.758;5.076;2024-03-06T05:28:36;102053.03;;;8.38;nan
74163;BME280;62515;52.758;5.076;2024-03-06T05:31:21;102045.94;;;8.38;nan
74163;BME280;62515;52.758;5.076;2024-03-06T05:34:05;102050.38;;;8.38;nan
74163;BME280;62515;52.758;5.076;2024-03-06T05:36:50;102056.56;;;9.35;nan
74163;BME280;62515;52.758;5.076;2024-03-06T05:39:34;102070.66;;;9.73;nan
74163;BME280;62515;52.758;5.076;2024-03-06T05:42:19;102070.59;;;9.74;nan
74163;BME280;62515;52.758;5.076;2024-03-06T05:45:05;102079.28;;;8.64;nan
74163;BME280;62515;52.758;5.076;2024-03-06T05:47:50;102087.75;;;8.72;nan
74163;BME280;62515;52.758;5.076;2024-03-06T05:50:35;102089.63;;;8.70;nan
74163;BME280;62515;52.758;5.076;2024-03-06T05:53:20;102096.03;;;8.85;nan
74163;BME280;62515;52.758;5.076;2024-03-06T05:56:05;102106.66;;;8.85;nan
74163;BME280;62515;52.758;5.076;2024-03-06T05:58:50;102107.59;;;8.84;nan
74163;BME280;62515;52.758;5.076;2024-03-06T06:01:19;102107.91;;;8.97;nan
74163;BME280;62515;52.758;5.076;2024-03-06T06:03:47;102116.69;;;8.78;nan
74163;BME280;62515;52.758;5.076;2024-03-06T06:06:14;102110.19;;;8.85;nan
74163;BME280;62515;52.758;5.076;2024-03-06T06:08:42;102114.69;;;8.83;nan
74163;BME280;62515;52.758;5.076;2024-03-06T06:11:10;102116.50;;;8.83;nan
74163;BME280;62515;52.758;5.076;2024-03-06T06:13:38;102122.47;;;8.68;nan
74163;BME280;62515;52.758;5.076;2024-03-06T06:16:06;102109.66;;;8.77;nan
74163;BME280;62515;52.758;5.076;2024-03-06T06:18:35;102119.56;;;8.74;nan
74163;BME280;62515;52.758;5.076;2024-03-06T06:21:03;102125.97;;;8.88;nan
74163;BME280;62515;52.758;5.076;2024-03-06T06:23:31;102116.03;;;8.53;nan
74163;BME280;62515;52.758;5.076;2024-03-06T06:25:59;102125.25;;;8.45;nan
74163;BME280;62515;52.758;5.076;2024-03-06T06:28:29;102128.97;;;8.61;nan
74163;BME280;62515;52.758;5.076;2024-03-06T06:34:35;102141.94;;;8.47;nan
74163;BME280;62515;52.758;5.076;2024-03-06T06:37:02;102152.88;;;8.39;nan
74163;BME280;62515;52.758;5.076;2024-03-06T07:07:42;102184.16;;;8.73;nan
74163;BME280;62515;52.758;5.076;2024-03-06T07:10:10;102185.78;;;8.55;nan
74163;BME280;62515;52.758;5.076;2024-03-06T07:12:40;102191.97;;;8.56;nan
74163;BME280;62515;52.758;5.076;2024-03-06T07:15:07;102202.69;;;8.74;nan
74163;BME280;62515;52.758;5.076;2024-03-06T07:35:06;102213.84;;;9.62;nan
74163;BME280;62515;52.758;5.076;2024-03-06T07:37:33;102220.72;;;9.66;nan
74163;BME280;62515;52.758;5.076;2024-03-06T07:40:01;102219.81;;;9.67;nan
74163;BME280;62515;52.758;5.076;2024-03-06T07:42:29;102225.53;;;9.39;nan
74163;BME280;62515;52.758;5.076;2024-03-06T07:59:11;102255.75;;;10.13;nan
74163;BME280;62515;52.758;5.076;2024-03-06T08:05:39;102231.09;;;9.72;nan
74163;BME280;62515;52.758;5.076;2024-03-06T08:08:42;102256.53;;;9.77;nan
74163;BME280;62515;52.758;5.076;2024-03-06T08:11:10;102289.16;;;9.62;nan
74163;BME280;62515;52.758;5.076;2024-03-06T08:19:24;102266.72;;;9.68;nan
74163;BME280;62515;52.758;5.076;2024-03-06T08:21:54;102299.50;;;9.68;nan
74163;BME280;62515;52.758;5.076;2024-03-06T08:24:22;102295.28;;;9.63;nan
74163;BME280;62515;52.758;5.076;2024-03-06T08:26:50;102299.44;;;9.50;nan
74163;BME280;62515;52.758;5.076;2024-03-06T08:29:23;102301.63;;;9.60;nan
74163;BME280;62515;52.758;5.076;2024-03-06T08:31:51;102315.91;;;9.78;nan
74163;BME280;62515;52.758;5.076;2024-03-06T08:34:19;102274.81;;;9.26;nan
74163;BME280;62515;52.758;5.076;2024-03-06T08:36:50;102310.72;;;9.55;nan
74163;BME280;62515;52.758;5.076;2024-03-06T08:39:36;102308.66;;;9.61;nan
74163;BME280;62515;52.758;5.076;2024-03-06T08:42:04;102296.38;;;9.59;nan
74163;BME280;62515;52.758;5.076;2024-03-06T08:44:32;102331.78;;;9.59;nan
74163;BME280;62515;52.758;5.076;2024-03-06T08:47:01;102309.34;;;9.46;nan
74163;BME280;62515;52.758;5.076;2024-03-06T08:49:40;102330.44;;;9.69;nan
74163;BME280;62515;52.758;5.076;2024-03-06T09:49:39;102383.84;;;10.98;nan
74163;BME280;62515;52.758;5.076;2024-03-06T09:58:06;102377.88;;;11.64;nan
74163;BME280;62515;52.758;5.076;2024-03-06T10:00:33;102388.72;;;12.43;nan
74163;BME280;62515;52.758;5.076;2024-03-06T11:01:46;102430.38;;;12.79;nan
74163;BME280;62515;52.758;5.076;2024-03-06T11:04:15;102433.56;;;12.85;nan
74163;BME280;62515;52.758;5.076;2024-03-06T11:06:42;102441.06;;;13.41;nan
74163;BME280;62515;52.758;5.076;2024-03-06T11:09:10;102443.28;;;13.79;nan
74163;BME280;62515;52.758;5.076;2024-03-06T11:11:48;102435.22;;;13.94;nan
74163;BME280;62515;52.758;5.076;2024-03-06T11:14:31;102436.28;;;13.62;nan
74163;BME280;62515;52.758;5.076;2024-03-06T11:17:06;102419.38;;;13.16;nan
74163;BME280;62515;52.758;5.076;2024-03-06T11:20:15;102435.81;;;14.13;nan
74163;BME280;62515;52.758;5.076;2024-03-06T11:23:08;102422.59;;;13.96;nan
74163;BME280;62515;52.758;5.076;2024-03-06T11:26:03;102443.66;;;15.01;nan
74163;BME280;62515;52.758;5.076;2024-03-06T11:28:51;102444.72;;;14.14;nan
74163;BME280;62515;52.758;5.076;2024-03-06T11:31:19;102409.81;;;14.72;nan
74163;BME280;62515;52.758;5.076;2024-03-06T11:33:53;102443.06;;;15.64;nan
74163;BME280;62515;52.758;5.076;2024-03-06T11:36:23;102421.00;;;15.46;nan
74163;BME280;62515;52.758;5.076;2024-03-06T11:39:06;102454.69;;;15.77;nan
74163;BME280;62515;52.758;5.076;2024-03-06T11:41:48;102440.44;;;15.89;nan
74163;BME280;62515;52.758;5.076;2024-03-06T11:44:17;102449.91;;;14.88;nan
74163;BME280;62515;52.758;5.076;2024-03-06T11:46:57;102462.34;;;14.60;nan
74163;BME280;62515;52.758;5.076;2024-03-06T11:49:34;102448.50;;;14.40;nan
74163;BME280;62515;52.758;5.076;2024-03-06T11:52:04;102456.13;;;13.58;nan
74163;BME280;62515;52.758;5.076;2024-03-06T11:54:33;102450.34;;;13.50;nan
74163;BME280;62515;52.758;5.076;2024-03-06T11:57:03;102477.31;;;14.06;nan
74163;BME280;62515;52.758;5.076;2024-03-06T11:59:32;102457.28;;;14.70;nan
74163;BME280;62515;52.758;5.076;2024-03-06T12:02:30;102461.88;;;14.82;nan
74163;BME280;62515;52.758;5.076;2024-03-06T12:05:25;102460.00;;;14.56;nan
74163;BME280;62515;52.758;5.076;2024-03-06T12:07:54;102458.25;;;14.55;nan
74163;BME280;62515;52.758;5.076;2024-03-06T12:10:21;102454.25;;;15.44;nan
74163;BME280;62515;52.758;5.076;2024-03-06T12:12:49;102461.88;;;15.23;nan
74163;BME280;62515;52.758;5.076;2024-03-06T12:15:20;102465.09;;;15.69;nan
74163;BME280;62515;52.758;5.076;2024-03-06T12:22:45;102463.56;;;15.11;nan
74163;BME280;62515;52.758;5.076;2024-03-06T12:25:18;102447.78;;;14.93;nan
74163;BME280;62515;52.758;5.076;2024-03-06T12:27:54;102465.25;;;14.43;nan
74163;BME280;62515;52.758;5.076;2024-03-06T12:37:18;102475.38;;;13.94;nan
74163;BME280;62515;52.758;5.076;2024-03-06T12:39:49;102478.28;;;13.60;nan
74163;BME280;62515;52.758;5.076;2024-03-06T12:42:28;102480.28;;;13.56;nan
74163;BME280;62515;52.758;5.076;2024-03-06T12:44:57;102474.03;;;13.42;nan
74163;BME280;62515;52.758;5.076;2024-03-06T13:44:07;102512.63;;;12.89;nan
74163;BME280;62515;52.758;5.076;2024-03-06T13:46:35;102505.31;;;12.60;nan
74163;BME280;62515;52.758;5.076;2024-03-06T13:49:03;102512.44;;;12.27;nan
74163;BME280;62515;52.758;5.076;2024-03-06T13:51:31;102510.50;;;11.60;nan
74163;BME280;62515;52.758;5.076;2024-03-06T13:53:58;102499.69;;;11.63;nan
74163;BME280;62515;52.758;5.076;2024-03-06T13:56:26;102506.38;;;11.72;nan
74163;BME280;62515;52.758;5.076;2024-03-06T13:58:54;102524.22;;;11.88;nan
74163;BME280;62515;52.758;5.076;2024-03-06T14:01:23;102483.41;;;11.86;nan
74163;BME280;62515;52.758;5.076;2024-03-06T14:03:52;102499.44;;;11.86;nan
74163;BME280;62515;52.758;5.076;2024-03-06T14:06:22;102512.75;;;12.21;nan
74163;BME280;62515;52.758;5.076;2024-03-06T14:08:49;102509.84;;;12.25;nan
74163;BME280;62515;52.758;5.076;2024-03-06T14:11:17;102523.59;;;12.18;nan
74163;BME280;62515;52.758;5.076;2024-03-06T14:13:45;102518.78;;;12.24;nan
74163;BME280;62515;52.758;5.076;2024-03-06T14:16:12;102495.81;;;12.22;nan
74163;BME280;62515;52.758;5.076;2024-03-06T14:18:41;102519.13;;;12.18;nan
74163;BME280;62515;52.758;5.076;2024-03-06T14:21:09;102527.28;;;12.15;nan
74163;BME280;62515;52.758;5.076;2024-03-06T14:23:37;102523.28;;;11.89;nan
74163;BME280;62515;52.758;5.076;2024-03-06T14:26:04;102535.06;;;12.02;nan
74163;BME280;62515;52.758;5.076;2024-03-06T14:28:32;102535.66;;;11.90;nan
74163;BME280;62515;52.758;5.076;2024-03-06T14:31:00;102537.50;;;11.71;nan
74163;BME280;62515;52.758;5.076;2024-03-06T14:33:27;102532.44;;;11.29;nan
74163;BME280;62515;52.758;5.076;2024-03-06T14:36:01;102541.56;;;11.42;nan
74163;BME280;62515;52.758;5.076;2024-03-06T14:38:38;102551.56;;;11.56;nan
74163;BME280;62515;52.758;5.076;2024-03-06T14:44:45;102552.69;;;11.88;nan
74163;BME280;62515;52.758;5.076;2024-03-06T14:55:01;102521.16;;;11.60;nan
74163;BME280;62515;52.758;5.076;2024-03-06T14:57:28;102556.09;;;12.09;nan
74163;BME280;62515;52.758;5.076;2024-03-06T15:00:03;102554.72;;;11.64;nan
74163;BME280;62515;52.758;5.076;2024-03-06T15:02:33;102546.78;;;11.08;nan
74163;BME280;62515;52.758;5.076;2024-03-06T15:05:01;102569.66;;;11.12;nan
74163;BME280;62515;52.758;5.076;2024-03-06T15:07:49;102566.00;;;11.15;nan
74163;BME280;62515;52.758;5.076;2024-03-06T15:28:10;102567.34;;;11.79;nan
74163;BME280;62515;52.758;5.076;2024-03-06T15:30:51;102525.00;;;11.36;nan
74163;BME280;62515;52.758;5.076;2024-03-06T15:33:24;102548.28;;;11.32;nan
74163;BME280;62515;52.758;5.076;2024-03-06T15:35:51;102566.28;;;11.46;nan
74163;BME280;62515;52.758;5.076;2024-03-06T15:38:19;102562.44;;;11.51;nan
74163;BME280;62515;52.758;5.076;2024-03-06T15:40:50;102564.41;;;11.67;nan
74163;BME280;62515;52.758;5.076;2024-03-06T15:43:20;102565.66;;;11.41;nan
74163;BME280;62515;52.758;5.076;2024-03-06T15:45:47;102570.03;;;11.61;nan
74163;BME280;62515;52.758;5.076;2024-03-06T15:48:16;102537.31;;;11.57;nan
74163;BME280;62515;52.758;5.076;2024-03-06T15:50:44;102534.47;;;11.24;nan
74163;BME280;62515;52.758;5.076;2024-03-06T15:53:12;102573.91;;;11.35;nan
74163;BME280;62515;52.758;5.076;2024-03-06T15:55:40;102571.13;;;11.38;nan
74163;BME280;62515;52.758;5.076;2024-03-06T15:58:09;102571.41;;;11.32;nan
74163;BME280;62515;52.758;5.076;2024-03-06T16:00:44;102575.50;;;11.39;nan
74163;BME280;62515;52.758;5.076;2024-03-06T16:03:12;102575.88;;;11.31;nan
74163;BME280;62515;52.758;5.076;2024-03-06T16:05:40;102574.34;;;11.26;nan
74163;BME280;62515;52.758;5.076;2024-03-06T16:08:08;102570.63;;;11.30;nan
74163;BME280;62515;52.758;5.076;2024-03-06T16:10:35;102570.81;;;11.25;nan
74163;BME280;62515;52.758;5.076;2024-03-06T16:13:03;102573.47;;;11.07;nan
74163;BME280;62515;52.758;5.076;2024-03-06T16:15:31;102580.69;;;11.05;nan
74163;BME280;62515;52.758;5.076;2024-03-06T16:18:00;102584.84;;;10.91;nan
74163;BME280;62515;52.758;5.076;2024-03-06T16:20:27;102589.16;;;10.94;nan
74163;BME280;62515;52.758;5.076;2024-03-06T16:22:55;102590.00;;;10.76;nan
74163;BME280;62515;52.758;5.076;2024-03-06T16:25:23;102594.78;;;10.88;nan
74163;BME280;62515;52.758;5.076;2024-03-06T16:27:51;102599.06;;;10.72;nan
74163;BME280;62515;52.758;5.076;2024-03-06T16:30:18;102595.13;;;10.40;nan
74163;BME280;62515;52.758;5.076;2024-03-06T16:32:46;102595.25;;;10.57;nan
74163;BME280;62515;52.758;5.076;2024-03-06T16:35:15;102596.00;;;10.61;nan
74163;BME280;62515;52.758;5.076;2024-03-06T16:37:42;102603.91;;;10.62;nan
74163;BME280;62515;52.758;5.076;2024-03-06T16:40:10;102608.56;;;10.57;nan
74163;BME280;62515;52.758;5.076;2024-03-06T16:42:38;102602.53;;;10.33;nan
74163;BME280;62515;52.758;5.076;2024-03-06T16:45:06;102610.91;;;10.44;nan
74163;BME280;62515;52.758;5.076;2024-03-06T16:47:35;102582.88;;;10.16;nan
74163;BME280;62515;52.758;5.076;2024-03-06T16:50:06;102614.47;;;10.23;nan
74163;BME280;62515;52.758;5.076;2024-03-06T16:52:42;102613.81;;;10.38;nan
74163;BME280;62515;52.758;5.076;2024-03-06T16:55:11;102587.19;;;9.96;nan
74163;BME280;62515;52.758;5.076;2024-03-06T16:57:39;102588.81;;;10.01;nan
74163;BME280;62515;52.758;5.076;2024-03-06T17:00:07;102612.53;;;10.05;nan
74163;BME280;62515;52.758;5.076;2024-03-06T17:02:36;102628.78;;;10.21;nan
74163;BME280;62515;52.758;5.076;2024-03-06T17:05:11;102623.53;;;10.39;nan
74163;BME280;62515;52.758;5.076;2024-03-06T17:07:41;102625.66;;;10.10;nan
74163;BME280;62515;52.758;5.076;2024-03-06T17:10:09;102630.41;;;10.02;nan
74163;BME280;62515;52.758;5.076;2024-03-06T17:12:37;102638.66;;;9.95;nan
74163;BME280;62515;52.758;5.076;2024-03-06T17:15:05;102638.34;;;9.81;nan
74163;BME280;62515;52.758;5.076;2024-03-06T17:17:33;102643.28;;;9.90;nan
74163;BME280;62515;52.758;5.076;2024-03-06T17:20:01;102638.88;;;9.68;nan
74163;BME280;62515;52.758;5.076;2024-03-06T17:22:28;102641.03;;;9.58;nan
74163;BME280;62515;52.758;5.076;2024-03-06T17:24:57;102639.00;;;9.65;nan
74163;BME280;62515;52.758;5.076;2024-03-06T17:27:24;102655.50;;;9.51;nan
74163;BME280;62515;52.758;5.076;2024-03-06T17:29:52;102644.75;;;9.31;nan
74163;BME280;62515;52.758;5.076;2024-03-06T17:32:19;102645.78;;;9.27;nan
74163;BME280;62515;52.758;5.076;2024-03-06T17:34:47;102649.75;;;9.15;nan
74163;BME280;62515;52.758;5.076;2024-03-06T17:37:14;102652.03;;;9.26;nan
74163;BME280;62515;52.758;5.076;2024-03-06T17:39:42;102659.69;;;9.33;nan
74163;BME280;62515;52.758;5.076;2024-03-06T17:42:10;102667.63;;;9.35;nan
74163;BME280;62515;52.758;5.076;2024-03-06T17:44:38;102666.91;;;9.30;nan
74163;BME280;62515;52.758;5.076;2024-03-06T17:47:06;102666.31;;;9.23;nan
74163;BME280;62515;52.758;5.076;2024-03-06T17:49:33;102665.31;;;9.26;nan
74163;BME280;62515;52.758;5.076;2024-03-06T17:52:01;102674.69;;;9.36;nan
74163;BME280;62515;52.758;5.076;2024-03-06T17:54:29;102671.94;;;9.37;nan
74163;BME280;62515;52.758;5.076;2024-03-06T17:56:56;102666.97;;;9.28;nan
74163;BME280;62515;52.758;5.076;2024-03-06T17:59:25;102674.34;;;9.45;nan
74163;BME280;62515;52.758;5.076;2024-03-06T18:01:53;102675.75;;;9.30;nan
74163;BME280;62515;52.758;5.076;2024-03-06T18:04:20;102681.81;;;9.34;nan
74163;BME280;62515;52.758;5.076;2024-03-06T18:06:48;102676.22;;;9.41;nan
74163;BME280;62515;52.758;5.076;2024-03-06T18:09:16;102675.06;;;9.25;nan
74163;BME280;62515;52.758;5.076;2024-03-06T18:11:43;102682.78;;;9.33;nan
74163;BME280;62515;52.758;5.076;2024-03-06T18:14:11;102684.59;;;9.54;nan
74163;BME280;62515;52.758;5.076;2024-03-06T18:16:48;102689.16;;;9.51;nan
74163;BME280;62515;52.758;5.076;2024-03-06T18:19:16;102684.44;;;9.35;nan
74163;BME280;62515;52.758;5.076;2024-03-06T18:22:12;102697.91;;;9.54;nan
74163;BME280;62515;52.758;5.076;2024-03-06T18:24:39;102693.50;;;9.53;nan
74163;BME280;62515;52.758;5.076;2024-03-06T18:27:07;102690.91;;;9.52;nan